createdAt,value
2022-10-05T00:01:32.988Z,2.90
2022-10-05T00:04:15.435Z,2.80
2022-10-05T00:06:46.623Z,4.05
2022-10-05T00:09:20.850Z,3.38
2022-10-05T00:11:51.214Z,5.22
2022-10-05T00:14:29.063Z,2.92
2022-10-05T00:16:58.084Z,2.70
2022-10-05T00:19:35.190Z,2.60
2022-10-05T00:22:13.610Z,2.60
2022-10-05T00:24:46.345Z,2.20
2022-10-05T00:27:21.366Z,2.50
2022-10-05T00:29:52.871Z,2.17
2022-10-05T00:32:21.586Z,2.60
2022-10-05T00:34:52.010Z,2.33
2022-10-05T00:37:20.675Z,2.40
2022-10-05T00:39:51.569Z,3.08
2022-10-05T00:42:41.001Z,4.00
2022-10-05T00:45:16.898Z,5.80
2022-10-05T00:48:01.611Z,5.75
2022-10-05T00:50:53.966Z,6.18
2022-10-05T00:53:39.673Z,6.10
2022-10-05T00:56:24.308Z,4.72
2022-10-05T00:59:09.884Z,4.30
2022-10-05T01:01:51.092Z,3.70
2022-10-05T01:04:32.981Z,3.60
2022-10-05T01:07:17.328Z,3.78
2022-10-05T01:09:58.711Z,3.03
2022-10-05T01:12:40.784Z,2.83
2022-10-05T01:15:18.728Z,2.88
2022-10-05T01:17:58.335Z,2.72
2022-10-05T01:20:46.911Z,3.17
2022-10-05T01:23:56.400Z,2.83
2022-10-05T01:27:02.226Z,3.33
2022-10-05T01:29:40.690Z,3.08
2022-10-05T01:32:23.854Z,2.88
2022-10-05T01:35:11.381Z,2.78
2022-10-05T01:37:57.928Z,3.00
2022-10-05T01:40:40.429Z,3.00
2022-10-05T01:43:22.632Z,2.70
2022-10-05T01:46:05.189Z,3.30
2022-10-05T01:48:49.769Z,3.10
2022-10-05T01:51:33.807Z,2.88
2022-10-05T01:54:19.453Z,2.80
2022-10-05T01:57:02.672Z,3.35
2022-10-05T01:59:53.250Z,3.40
2022-10-05T02:02:27.035Z,3.53
2022-10-05T02:05:06.651Z,3.10
2022-10-05T02:07:42.652Z,2.42
2022-10-05T02:10:22.300Z,2.80
2022-10-05T02:12:58.675Z,2.80
2022-10-05T02:15:34.914Z,3.30
2022-10-05T02:18:14.698Z,2.88
2022-10-05T02:20:46.732Z,3.10
2022-10-05T02:23:22.049Z,3.10
2022-10-05T02:25:55.793Z,3.13
2022-10-05T02:28:30.661Z,3.30
2022-10-05T02:31:07.204Z,3.13
2022-10-05T02:33:38.021Z,3.30
2022-10-05T02:36:17.161Z,2.40
2022-10-05T02:39:11.600Z,3.40
2022-10-05T02:41:54.893Z,2.97
2022-10-05T02:44:35.999Z,3.08
2022-10-05T02:47:14.847Z,2.70
2022-10-05T02:49:53.360Z,3.40
2022-10-05T02:52:30.805Z,3.78
2022-10-05T02:55:13.694Z,5.67
2022-10-05T02:57:52.772Z,4.10
2022-10-05T03:00:25.510Z,4.00
2022-10-05T03:03:05.890Z,4.35
2022-10-05T03:05:45.083Z,3.73
2022-10-05T03:08:23.357Z,3.77
2022-10-05T03:11:05.671Z,3.60
2022-10-05T03:13:48.450Z,4.18
2022-10-05T03:16:35.755Z,3.50
2022-10-05T03:19:29.005Z,4.10
2022-10-05T03:22:11.371Z,4.50
2022-10-05T03:25:00.741Z,5.70
2022-10-05T03:27:42.273Z,3.70
2022-10-05T03:30:16.649Z,4.00
2022-10-05T03:33:03.675Z,3.65
2022-10-05T03:35:43.303Z,3.75
2022-10-05T03:38:28.699Z,4.00
2022-10-05T03:41:10.113Z,7.17
2022-10-05T03:44:03.593Z,4.50
2022-10-05T03:46:51.233Z,4.57
2022-10-05T03:49:31.831Z,10.47
2022-10-05T03:52:11.580Z,7.43
2022-10-05T03:54:48.141Z,6.23
2022-10-05T03:57:22.654Z,5.15
2022-10-05T04:00:02.235Z,5.10
2022-10-05T04:02:35.963Z,4.78
2022-10-05T04:05:15.769Z,4.63
2022-10-05T04:07:51.376Z,29.90
2022-10-05T04:10:28.901Z,10.05
2022-10-05T04:13:05.576Z,6.35
2022-10-05T04:15:42.839Z,5.70
2022-10-05T04:18:26.863Z,11.57
2022-10-05T04:21:04.027Z,8.95
2022-10-05T04:23:47.423Z,7.50
2022-10-05T04:26:27.475Z,6.37
2022-10-05T04:29:04.562Z,6.50
2022-10-05T04:32:02.514Z,6.85
2022-10-05T04:34:53.991Z,6.72
2022-10-05T04:37:35.623Z,6.35
2022-10-05T04:40:28.162Z,6.93
2022-10-05T04:43:10.991Z,7.30
2022-10-05T04:46:02.493Z,6.57
2022-10-05T04:49:06.314Z,8.20
2022-10-05T04:51:51.958Z,9.18
2022-10-05T04:54:36.712Z,9.67
2022-10-05T04:57:14.190Z,10.90
2022-10-05T05:00:23.042Z,10.55
2022-10-05T05:03:23.836Z,10.18
2022-10-05T05:06:22.377Z,10.23
2022-10-05T05:09:25.517Z,9.93
2022-10-05T05:12:12.062Z,11.30
2022-10-05T05:15:06.259Z,23.80
2022-10-05T05:17:57.563Z,16.40
2022-10-05T05:20:39.279Z,17.38
2022-10-05T05:23:20.049Z,33.50
2022-10-05T05:26:03.583Z,27.87
2022-10-05T05:28:43.632Z,17.67
2022-10-05T05:31:25.716Z,15.80
2022-10-05T05:34:06.643Z,15.70
2022-10-05T05:36:57.582Z,16.17
2022-10-05T05:39:33.433Z,15.77
2022-10-05T05:42:17.816Z,15.27
2022-10-05T05:44:52.812Z,14.45
2022-10-05T05:47:35.321Z,14.33
2022-10-05T05:50:32.564Z,15.02
2022-10-05T05:53:14.008Z,16.08
2022-10-05T05:55:48.710Z,16.80
2022-10-05T05:58:26.652Z,17.83
2022-10-05T06:01:03.700Z,19.08
2022-10-05T06:03:41.164Z,19.43
2022-10-05T06:06:15.469Z,18.55
2022-10-05T06:08:49.955Z,22.70
2022-10-05T06:11:24.733Z,20.77
2022-10-05T06:13:55.159Z,21.27
2022-10-05T06:16:33.439Z,22.17
2022-10-05T06:19:12.036Z,22.58
2022-10-05T06:21:49.413Z,21.60
2022-10-05T06:24:26.967Z,22.15
2022-10-05T06:27:28.348Z,21.77
2022-10-05T06:30:11.282Z,20.35
2022-10-05T06:33:04.376Z,18.70
2022-10-05T06:35:55.786Z,18.85
2022-10-05T06:38:51.274Z,20.50
2022-10-05T06:41:35.448Z,20.20
2022-10-05T06:44:11.055Z,20.13
2022-10-05T06:46:54.252Z,18.60
2022-10-05T06:49:31.362Z,19.37
2022-10-05T06:52:13.550Z,19.23
2022-10-05T06:55:03.723Z,20.47
2022-10-05T06:57:55.327Z,19.93
2022-10-05T07:00:30.013Z,20.20
2022-10-05T07:03:09.850Z,17.50
2022-10-05T07:05:56.749Z,23.83
2022-10-05T07:08:40.085Z,35.33
2022-10-05T07:11:26.640Z,17.90
2022-10-05T07:14:24.800Z,40.65
2022-10-05T07:17:18.758Z,20.52
2022-10-05T07:20:01.100Z,20.55
2022-10-05T07:23:16.447Z,17.52
2022-10-05T07:26:00.855Z,17.35
2022-10-05T07:28:41.274Z,15.60
2022-10-05T07:31:21.321Z,17.88
2022-10-05T07:34:02.591Z,14.25
2022-10-05T07:37:01.572Z,13.10
2022-10-05T07:39:59.064Z,13.63
2022-10-05T07:42:50.701Z,12.15
2022-10-05T07:45:30.878Z,13.18
2022-10-05T07:48:08.622Z,13.82
2022-10-05T07:50:51.990Z,13.10
2022-10-05T07:53:26.188Z,12.73
2022-10-05T07:56:01.570Z,13.63
2022-10-05T07:58:38.607Z,15.30
2022-10-05T08:01:17.109Z,15.32
2022-10-05T08:03:54.408Z,15.02
2022-10-05T08:06:48.533Z,14.85
2022-10-05T08:09:34.645Z,12.75
2022-10-05T08:12:28.870Z,11.95
2022-10-05T08:15:04.206Z,10.10
2022-10-05T08:17:47.304Z,10.70
2022-10-05T08:20:36.718Z,9.70
2022-10-05T08:23:22.204Z,9.40
2022-10-05T08:26:06.646Z,9.80
2022-10-05T08:28:40.019Z,8.95
2022-10-05T08:31:21.475Z,8.68
2022-10-05T08:34:02.198Z,8.95
2022-10-05T08:36:56.217Z,8.88
2022-10-05T08:39:30.737Z,8.90
2022-10-05T08:42:52.612Z,9.45
2022-10-05T08:46:00.293Z,8.85
2022-10-05T08:49:32.841Z,8.65
2022-10-05T08:52:29.217Z,8.77
2022-10-05T08:55:28.443Z,9.40
2022-10-05T08:58:27.124Z,11.00
2022-10-05T09:01:08.136Z,6.80
2022-10-05T09:04:09.315Z,9.05
2022-10-05T09:07:40.201Z,7.43
2022-10-05T09:10:55.652Z,9.00
2022-10-05T09:14:18.503Z,9.35
2022-10-05T09:17:24.496Z,8.40
2022-10-05T09:20:22.096Z,7.82
2022-10-05T09:23:13.899Z,7.63
2022-10-05T09:26:00.742Z,6.82
2022-10-05T09:28:45.253Z,6.97
2022-10-05T09:31:52.267Z,6.60
2022-10-05T09:34:58.729Z,6.90
2022-10-05T09:38:23.412Z,6.30
2022-10-05T09:41:49.411Z,6.60
2022-10-05T09:44:58.397Z,7.15
2022-10-05T09:48:07.369Z,6.35
2022-10-05T09:51:07.200Z,6.10
2022-10-05T09:54:32.809Z,6.57
2022-10-05T09:58:08.157Z,6.55
2022-10-05T10:01:29.084Z,5.90
2022-10-05T10:04:38.274Z,5.15
2022-10-05T10:07:48.675Z,5.68
2022-10-05T10:11:02.147Z,5.68
2022-10-05T10:14:12.379Z,5.78
2022-10-05T10:17:17.199Z,5.45
2022-10-05T10:20:25.484Z,5.18
2022-10-05T10:23:24.475Z,4.97
2022-10-05T10:26:31.469Z,4.78
2022-10-05T10:29:47.066Z,4.60
2022-10-05T10:32:45.776Z,4.35
2022-10-05T10:35:32.844Z,3.70
2022-10-05T10:38:52.726Z,4.30
2022-10-05T10:42:07.041Z,5.05
2022-10-05T10:45:24.260Z,5.55
2022-10-05T10:48:03.514Z,5.03
2022-10-05T10:51:05.412Z,5.07
2022-10-05T10:54:29.733Z,4.78
2022-10-05T10:57:10.209Z,2.90
2022-10-05T11:00:41.142Z,2.70
2022-10-05T11:04:01.841Z,2.35
2022-10-05T11:07:25.074Z,2.55
2022-10-05T11:10:40.457Z,5.97
2022-10-05T11:13:52.237Z,2.47
2022-10-05T11:17:10.920Z,2.10
2022-10-05T11:20:05.517Z,2.40
2022-10-05T11:22:55.631Z,2.10
2022-10-05T11:26:01.629Z,2.08
2022-10-05T11:29:18.634Z,2.70
2022-10-05T11:32:35.087Z,2.40
2022-10-05T11:35:56.850Z,3.55
2022-10-05T11:38:58.973Z,2.20
2022-10-05T11:42:21.148Z,1.95
2022-10-05T11:45:27.782Z,3.20
2022-10-05T11:48:35.202Z,8.60
2022-10-05T11:51:36.861Z,2.45
2022-10-05T11:57:46.400Z,5.80
2022-10-05T12:00:21.387Z,2.50
2022-10-05T12:03:37.284Z,3.13
2022-10-05T12:06:34.224Z,2.70
2022-10-05T12:09:20.086Z,2.05
2022-10-05T12:12:13.266Z,1.83
2022-10-05T12:14:58.278Z,1.90
2022-10-05T12:17:38.171Z,2.10
2022-10-05T12:20:18.177Z,2.45
2022-10-05T12:22:53.731Z,1.88
2022-10-05T12:25:31.754Z,1.70
2022-10-05T12:28:07.218Z,2.00
2022-10-05T12:31:16.105Z,2.00
2022-10-05T12:33:58.558Z,6.07
2022-10-05T12:36:59.660Z,3.17
2022-10-05T12:39:34.518Z,3.67
2022-10-05T12:42:20.603Z,3.20
2022-10-05T12:45:17.957Z,2.40
2022-10-05T12:48:12.286Z,3.45
2022-10-05T12:50:47.065Z,2.92
2022-10-05T12:53:38.161Z,2.00
2022-10-05T12:56:17.336Z,2.30
2022-10-05T12:58:57.544Z,2.60
2022-10-05T13:01:40.356Z,2.15
2022-10-05T13:04:28.932Z,2.10
2022-10-05T13:07:42.475Z,2.40
2022-10-05T13:10:30.847Z,2.00
2022-10-05T13:13:31.802Z,4.18
2022-10-05T13:16:12.717Z,2.42
2022-10-05T13:19:03.910Z,2.83
2022-10-05T13:21:50.128Z,2.00
2022-10-05T13:24:26.761Z,2.10
2022-10-05T13:27:08.555Z,2.72
2022-10-05T13:29:49.009Z,2.70
2022-10-05T13:32:26.355Z,3.22
2022-10-05T13:35:15.652Z,2.38
2022-10-05T13:37:59.947Z,2.85
2022-10-05T13:40:36.931Z,2.40
2022-10-05T13:43:17.648Z,2.30
2022-10-05T13:45:57.147Z,2.22
2022-10-05T13:48:55.708Z,2.08
2022-10-05T13:51:30.741Z,1.88
2022-10-05T13:54:11.907Z,3.00
2022-10-05T13:56:49.821Z,2.28
2022-10-05T13:59:31.739Z,5.43
2022-10-05T14:02:06.852Z,18.33
2022-10-05T14:04:48.016Z,5.97
2022-10-05T14:07:31.640Z,6.80
2022-10-05T14:10:02.064Z,9.95
2022-10-05T14:12:42.214Z,3.40
2022-10-05T14:15:31.448Z,3.30
2022-10-05T14:18:00.644Z,1.90
2022-10-05T14:20:34.353Z,2.00
2022-10-05T14:23:12.212Z,2.03
2022-10-05T14:25:53.983Z,1.85
2022-10-05T14:28:29.912Z,2.05
2022-10-05T14:31:01.182Z,2.05
2022-10-05T14:33:33.239Z,2.13
2022-10-05T14:36:02.610Z,2.20
2022-10-05T14:38:51.846Z,2.35
2022-10-05T14:41:22.313Z,2.10
2022-10-05T14:43:57.378Z,3.20
2022-10-05T14:46:30.194Z,11.32
2022-10-05T14:49:22.713Z,2.45
2022-10-05T14:51:53.399Z,8.70
2022-10-05T14:54:47.287Z,6.35
2022-10-05T14:57:30.873Z,2.50
2022-10-05T15:00:12.450Z,2.38
2022-10-05T15:03:30.031Z,2.65
2022-10-05T15:06:03.848Z,2.33
2022-10-05T15:09:02.849Z,2.30
2022-10-05T15:11:43.399Z,2.28
2022-10-05T15:14:21.178Z,2.45
2022-10-05T15:16:59.037Z,2.33
2022-10-05T15:19:44.917Z,2.53
2022-10-05T15:22:31.837Z,2.50
2022-10-05T15:25:15.265Z,2.40
2022-10-05T15:28:18.737Z,2.22
2022-10-05T15:30:59.504Z,2.70
2022-10-05T15:33:36.872Z,2.20
2022-10-05T15:36:32.376Z,2.33
2022-10-05T15:39:19.136Z,2.25
2022-10-05T15:42:10.874Z,2.53
2022-10-05T15:44:58.212Z,2.33
2022-10-05T15:47:47.762Z,2.35
2022-10-05T15:50:27.128Z,2.22
2022-10-05T15:53:06.657Z,2.30
2022-10-05T15:55:43.809Z,2.63
2022-10-05T15:58:40.240Z,2.30
2022-10-05T16:01:13.638Z,2.33
2022-10-05T16:03:51.671Z,2.75
2022-10-05T16:07:00.496Z,2.45
2022-10-05T16:09:47.363Z,5.95
2022-10-05T16:12:43.202Z,2.40
2022-10-05T16:15:28.504Z,2.60
2022-10-05T16:18:43.469Z,4.60
2022-10-05T16:21:30.651Z,2.50
2022-10-05T16:24:15.396Z,2.78
2022-10-05T16:27:00.877Z,4.22
2022-10-05T16:29:46.919Z,3.33
2022-10-05T16:32:22.952Z,4.38
2022-10-05T16:35:11.452Z,7.32
2022-10-05T16:37:49.114Z,5.22
2022-10-05T16:40:30.088Z,4.60
2022-10-05T16:43:12.014Z,3.80
2022-10-05T16:46:09.933Z,4.10
2022-10-05T16:48:51.145Z,3.40
2022-10-05T16:51:32.517Z,4.78
2022-10-05T16:54:19.265Z,3.95
2022-10-05T16:56:53.848Z,3.83
2022-10-05T17:00:08.846Z,4.43
2022-10-05T17:03:12.145Z,3.95
2022-10-05T17:06:00.569Z,5.68
2022-10-05T17:09:20.454Z,4.80
2022-10-05T17:12:11.466Z,4.90
2022-10-05T17:14:55.507Z,5.55
2022-10-05T17:17:42.956Z,4.22
2022-10-05T17:20:35.404Z,3.97
2022-10-05T17:23:23.822Z,3.78
2022-10-05T17:25:57.559Z,4.55
2022-10-05T17:28:40.178Z,5.25
2022-10-05T17:31:17.570Z,4.00
2022-10-05T17:34:18.136Z,3.28
2022-10-05T17:36:53.643Z,3.15
2022-10-05T17:39:24.554Z,4.38
2022-10-05T17:42:17.734Z,3.70
2022-10-05T17:44:46.644Z,3.45
2022-10-05T17:47:20.149Z,6.43
2022-10-05T17:50:17.909Z,5.70
2022-10-05T17:53:38.330Z,6.90
2022-10-05T17:56:07.849Z,4.72
2022-10-05T17:59:07.072Z,3.92
2022-10-05T18:01:39.233Z,3.25
2022-10-05T18:04:50.682Z,3.80
2022-10-05T18:07:28.971Z,3.15
2022-10-05T18:10:20.283Z,3.72
2022-10-05T18:13:15.528Z,3.13
2022-10-05T18:15:50.484Z,3.92
2022-10-05T18:18:57.397Z,3.85
2022-10-05T18:21:39.801Z,4.35
2022-10-05T18:24:53.223Z,3.50
2022-10-05T18:28:08.604Z,4.18
2022-10-05T18:30:59.743Z,4.00
2022-10-05T18:34:03.337Z,4.15
2022-10-05T18:36:52.646Z,4.07
2022-10-05T18:39:46.322Z,5.88
2022-10-05T18:42:27.323Z,5.22
2022-10-05T18:45:05.441Z,4.07
2022-10-05T18:47:48.293Z,4.72
2022-10-05T18:50:29.776Z,4.22
2022-10-05T18:53:17.282Z,4.75
2022-10-05T18:55:55.219Z,4.50
2022-10-05T18:58:36.340Z,5.82
2022-10-05T19:01:48.397Z,4.85
2022-10-05T19:04:38.221Z,4.18
2022-10-05T19:07:22.121Z,4.90
2022-10-05T19:10:08.793Z,4.80
2022-10-05T19:13:01.525Z,5.68
2022-10-05T19:15:45.731Z,4.80
2022-10-05T19:19:00.206Z,5.82
2022-10-05T19:21:41.485Z,5.00
2022-10-05T19:24:37.658Z,5.40
2022-10-05T19:27:18.419Z,5.47
2022-10-05T19:30:14.785Z,4.70
2022-10-05T19:33:05.053Z,4.63
2022-10-05T19:35:48.552Z,5.72
2022-10-05T19:38:30.583Z,6.10
2022-10-05T19:41:13.372Z,6.13
2022-10-05T19:44:10.440Z,5.40
2022-10-05T19:47:01.132Z,5.88
2022-10-05T19:49:50.442Z,4.95
2022-10-05T19:52:28.642Z,7.82
2022-10-05T19:55:16.071Z,5.90
2022-10-05T19:57:50.264Z,5.68
2022-10-05T20:00:26.123Z,6.55
2022-10-05T20:03:12.665Z,6.68
2022-10-05T20:05:42.192Z,5.60
2022-10-05T20:08:18.497Z,4.70
2022-10-05T20:11:08.045Z,4.75
2022-10-05T20:13:37.608Z,5.93
2022-10-05T20:16:45.745Z,5.30
2022-10-05T20:19:50.013Z,4.70
2022-10-05T20:22:34.392Z,7.70
2022-10-05T20:25:07.274Z,9.13
2022-10-05T20:27:46.979Z,7.95
2022-10-05T20:30:18.873Z,5.88
2022-10-05T20:32:50.522Z,6.60
2022-10-05T20:35:22.377Z,5.30
2022-10-05T20:37:51.384Z,5.22
2022-10-05T20:40:21.345Z,5.25
2022-10-05T20:42:51.831Z,5.18
2022-10-05T20:45:21.093Z,4.78
2022-10-05T20:47:50.852Z,5.80
2022-10-05T20:50:21.301Z,9.32
2022-10-05T20:52:50.814Z,5.30
2022-10-05T20:55:20.932Z,5.50
2022-10-05T20:57:51.922Z,4.57
2022-10-05T21:00:20.933Z,6.38
2022-10-05T21:02:50.117Z,8.13
2022-10-05T21:05:19.027Z,5.53
2022-10-05T21:07:48.143Z,5.60
2022-10-05T21:10:17.250Z,4.70
2022-10-05T21:12:46.503Z,4.25
2022-10-05T21:15:17.033Z,4.30
2022-10-05T21:17:46.067Z,5.07
2022-10-05T21:20:15.082Z,4.47
2022-10-05T21:22:44.016Z,4.95
2022-10-05T21:25:12.895Z,4.70
2022-10-05T21:27:41.684Z,4.57
2022-10-05T21:30:11.952Z,5.55
2022-10-05T21:32:44.640Z,4.75
2022-10-05T21:35:13.632Z,4.47
2022-10-05T21:37:42.514Z,4.20
2022-10-05T21:40:12.226Z,4.85
2022-10-05T21:42:41.321Z,4.57
2022-10-05T21:45:11.585Z,4.45
2022-10-05T21:47:42.753Z,4.70
2022-10-05T21:50:12.028Z,4.55
2022-10-05T21:52:41.130Z,4.70
2022-10-05T21:55:11.745Z,4.60
2022-10-05T21:57:41.396Z,4.65
2022-10-05T22:00:11.978Z,4.60
2022-10-05T22:02:42.713Z,4.70
2022-10-05T22:05:11.453Z,4.80
2022-10-05T22:07:40.268Z,4.20
2022-10-05T22:10:10.292Z,4.80
2022-10-05T22:12:39.055Z,4.97
2022-10-05T22:15:09.213Z,4.90
2022-10-05T22:17:39.043Z,4.38
2022-10-05T22:20:14.563Z,4.95
2022-10-05T22:22:43.263Z,4.80
2022-10-05T22:25:12.084Z,4.75
2022-10-05T22:27:41.907Z,4.78
2022-10-05T22:30:14.837Z,5.60
2022-10-05T22:32:43.823Z,5.85
2022-10-05T22:35:14.227Z,5.72
2022-10-05T22:37:43.015Z,5.80
2022-10-05T22:40:12.344Z,5.00
2022-10-05T22:42:41.517Z,5.28
2022-10-05T22:45:11.000Z,4.90
2022-10-05T22:47:39.906Z,4.90
2022-10-05T22:50:10.755Z,5.25
2022-10-05T22:52:41.616Z,4.93
2022-10-05T22:55:11.714Z,5.05
2022-10-05T22:57:41.600Z,4.88
2022-10-05T23:00:13.188Z,4.82
2022-10-05T23:02:43.989Z,5.10
2022-10-05T23:05:14.730Z,5.40
2022-10-05T23:07:47.758Z,5.18
2022-10-05T23:10:19.616Z,5.07
2022-10-05T23:13:00.556Z,4.95
2022-10-05T23:15:33.565Z,5.28
2022-10-05T23:18:02.251Z,5.57
2022-10-05T23:20:31.082Z,5.07
2022-10-05T23:23:02.486Z,5.53
2022-10-05T23:25:32.805Z,5.50
2022-10-05T23:28:03.919Z,5.10
2022-10-05T23:30:32.702Z,4.88
2022-10-05T23:33:01.448Z,5.10
2022-10-05T23:35:30.228Z,5.03
2022-10-05T23:37:59.013Z,4.80
2022-10-05T23:40:29.214Z,5.57
2022-10-05T23:42:58.222Z,4.65
2022-10-05T23:45:27.014Z,4.82
2022-10-05T23:47:55.687Z,5.05
2022-10-05T23:50:27.108Z,5.43
2022-10-05T23:52:55.906Z,5.22
2022-10-05T23:55:24.605Z,5.13
2022-10-05T23:57:54.681Z,5.55
